createdAt,value
2019-05-10T00:00:19.255Z,19.93
2019-05-10T00:03:07.169Z,16.30
2019-05-10T00:05:54.437Z,19.40
2019-05-10T00:08:41.696Z,18.80
2019-05-10T00:11:33.330Z,20.70
2019-05-10T00:14:39.015Z,22.47
2019-05-10T00:17:13.737Z,15.77
2019-05-10T00:19:43.670Z,22.70
2019-05-10T00:22:13.605Z,21.40
2019-05-10T00:24:43.519Z,20.83
2019-05-10T00:27:13.501Z,19.37
2019-05-10T00:29:43.421Z,24.83
2019-05-10T00:32:13.378Z,23.03
2019-05-10T00:34:43.313Z,24.73
2019-05-10T00:37:13.197Z,19.13
2019-05-10T00:39:43.134Z,24.30
2019-05-10T00:42:13.164Z,16.53
2019-05-10T00:44:43.061Z,16.63
2019-05-10T00:47:13.009Z,27.40
2019-05-10T00:49:42.969Z,21.93
2019-05-10T00:52:12.886Z,17.63
2019-05-10T00:54:42.817Z,22.07
2019-05-10T00:57:12.801Z,20.33
2019-05-10T00:59:45.483Z,20.33
2019-05-10T01:02:15.367Z,20.87
2019-05-10T01:04:45.332Z,20.33
2019-05-10T01:07:15.265Z,21.83
2019-05-10T01:09:45.160Z,20.80
2019-05-10T01:12:15.113Z,20.63
2019-05-10T01:14:45.039Z,22.87
2019-05-10T01:17:14.993Z,23.20
2019-05-10T01:19:44.950Z,22.60
2019-05-10T01:22:14.888Z,20.73
2019-05-10T01:24:44.862Z,30.00
2019-05-10T01:27:14.876Z,18.83
2019-05-10T01:29:44.828Z,25.70
2019-05-10T01:32:15.038Z,18.47
2019-05-10T01:34:45.075Z,18.83
2019-05-10T01:37:15.044Z,24.23
2019-05-10T01:39:44.955Z,20.23
2019-05-10T01:42:14.930Z,22.73
2019-05-10T01:44:44.895Z,23.10
2019-05-10T01:47:14.825Z,23.97
2019-05-10T01:49:44.915Z,26.90
2019-05-10T01:52:14.945Z,24.57
2019-05-10T01:54:44.864Z,22.10
2019-05-10T01:57:14.829Z,18.97
2019-05-10T01:59:44.796Z,19.43
2019-05-10T02:02:14.847Z,21.40
2019-05-10T02:04:44.788Z,17.83
2019-05-10T02:07:14.859Z,20.27
2019-05-10T02:09:44.795Z,18.40
2019-05-10T02:12:14.684Z,14.40
2019-05-10T02:14:44.644Z,12.73
2019-05-10T02:17:14.560Z,15.00
2019-05-10T02:26:30.510Z,11.47
2019-05-10T02:29:00.460Z,10.17
2019-05-10T02:31:30.384Z,8.43
2019-05-10T02:34:00.325Z,8.50
2019-05-10T02:36:30.283Z,10.83
2019-05-10T02:39:00.212Z,9.37
2019-05-10T02:41:30.140Z,9.70
2019-05-10T02:44:00.108Z,10.97
2019-05-10T02:46:30.005Z,11.17
2019-05-10T02:48:59.968Z,11.10
2019-05-10T02:51:30.015Z,11.13
2019-05-10T02:54:00.488Z,9.30
2019-05-10T02:56:31.759Z,7.77
2019-05-10T02:59:02.581Z,14.67
2019-05-10T03:01:35.064Z,10.33
2019-05-10T03:04:04.993Z,11.27
2019-05-10T03:06:35.907Z,12.23
2019-05-10T03:09:08.734Z,9.13
2019-05-10T03:11:49.393Z,9.13
2019-05-10T03:14:19.831Z,13.07
2019-05-10T03:16:52.250Z,12.23
2019-05-10T03:19:23.161Z,8.83
2019-05-10T03:22:01.100Z,10.53
2019-05-10T03:24:31.016Z,11.43
2019-05-10T03:27:00.953Z,10.20
2019-05-10T03:29:30.921Z,13.23
2019-05-10T03:32:00.830Z,8.80
2019-05-10T03:34:31.006Z,8.30
2019-05-10T03:37:01.310Z,12.17
2019-05-10T03:39:31.210Z,13.33
2019-05-10T03:42:01.222Z,12.53
2019-05-10T03:44:31.183Z,9.63
2019-05-10T03:47:01.114Z,9.63
2019-05-10T03:49:31.056Z,14.40
2019-05-10T03:52:01.004Z,20.17
2019-05-10T03:54:30.958Z,10.20
2019-05-10T03:57:13.157Z,10.87
2019-05-10T03:59:32.455Z,10.27
2019-05-10T04:02:02.523Z,10.17
2019-05-10T04:04:32.440Z,11.97
2019-05-10T04:07:02.407Z,14.20
2019-05-10T04:09:32.312Z,10.60
2019-05-10T04:12:02.231Z,17.53
2019-05-10T04:14:32.204Z,12.90
2019-05-10T04:17:01.978Z,13.40
2019-05-10T04:19:31.705Z,13.03
2019-05-10T04:22:01.462Z,13.90
2019-05-10T04:24:35.708Z,13.37
2019-05-10T04:27:02.813Z,17.20
2019-05-10T04:29:32.793Z,13.97
2019-05-10T04:32:02.503Z,13.23
2019-05-10T04:34:33.975Z,12.47
2019-05-10T04:37:03.693Z,12.57
2019-05-10T04:39:43.360Z,9.20
2019-05-10T04:42:13.075Z,15.80
2019-05-10T04:44:42.811Z,14.57
2019-05-10T04:47:12.559Z,14.60
2019-05-10T04:49:42.365Z,11.27
2019-05-10T04:52:12.148Z,15.40
2019-05-10T04:54:42.011Z,13.03
2019-05-10T04:57:11.846Z,8.17
2019-05-10T04:59:41.551Z,11.07
2019-05-10T05:02:11.203Z,13.13
2019-05-10T05:04:41.170Z,11.50
2019-05-10T05:07:18.259Z,8.73
2019-05-10T05:09:59.941Z,13.87
2019-05-10T05:12:30.455Z,13.93
2019-05-10T05:15:00.576Z,13.47
2019-05-10T05:17:30.882Z,11.30
2019-05-10T05:20:00.727Z,17.43
2019-05-10T05:22:30.523Z,13.37
2019-05-10T05:25:01.071Z,17.90
2019-05-10T05:27:31.360Z,9.43
2019-05-10T05:30:01.279Z,10.27
2019-05-10T05:32:31.353Z,16.13
2019-05-10T05:35:01.082Z,18.13
2019-05-10T05:37:30.879Z,11.80
2019-05-10T05:40:00.663Z,8.80
2019-05-10T05:42:30.329Z,12.07
2019-05-10T05:45:00.121Z,12.97
2019-05-10T05:47:29.956Z,14.40
2019-05-10T05:49:59.668Z,12.67
2019-05-10T05:52:29.423Z,10.13
2019-05-10T05:54:59.348Z,10.40
2019-05-10T05:57:29.719Z,12.80
2019-05-10T06:00:04.037Z,11.33
2019-05-10T06:02:31.116Z,10.37
2019-05-10T06:05:00.990Z,10.33
2019-05-10T06:07:31.140Z,9.37
2019-05-10T06:10:02.034Z,8.43
2019-05-10T06:12:31.738Z,13.23
2019-05-10T06:15:01.360Z,12.17
2019-05-10T06:17:31.752Z,13.13
2019-05-10T06:20:05.937Z,9.67
2019-05-10T06:22:38.002Z,16.37
2019-05-10T06:25:04.711Z,10.30
2019-05-10T06:27:35.447Z,9.10
2019-05-10T06:30:06.261Z,11.10
2019-05-10T06:32:36.067Z,10.50
2019-05-10T06:35:06.118Z,11.10
2019-05-10T06:37:36.384Z,10.10
2019-05-10T06:40:06.319Z,11.77
2019-05-10T06:42:36.221Z,8.37
2019-05-10T06:45:14.525Z,10.97
2019-05-10T06:47:41.782Z,11.77
2019-05-10T06:50:10.698Z,13.40
2019-05-10T06:52:40.430Z,7.97
2019-05-10T06:55:10.112Z,10.53
2019-05-10T06:57:39.864Z,10.20
2019-05-10T07:00:10.371Z,10.77
2019-05-10T07:02:40.294Z,13.40
2019-05-10T07:05:10.261Z,7.60
2019-05-10T07:08:16.394Z,10.20
2019-05-10T07:10:41.036Z,10.67
2019-05-10T07:13:10.906Z,16.13
2019-05-10T07:15:44.656Z,9.93
2019-05-10T07:18:16.996Z,10.90
2019-05-10T07:20:44.163Z,8.10
2019-05-10T07:23:13.943Z,7.80
2019-05-10T07:25:46.511Z,7.10
2019-05-10T07:31:12.351Z,7.97
2019-05-10T07:33:42.075Z,8.27
2019-05-10T07:36:15.458Z,6.40
2019-05-10T07:38:45.846Z,12.90
2019-05-10T07:41:19.489Z,7.90
2019-05-10T07:43:48.312Z,8.13
2019-05-10T07:46:18.434Z,11.03
2019-05-10T07:48:53.566Z,8.53
2019-05-10T07:51:22.995Z,7.30
2019-05-10T07:53:51.745Z,10.47
2019-05-10T07:56:23.287Z,7.67
2019-05-10T07:58:53.285Z,7.97
2019-05-10T08:01:32.347Z,10.63
2019-05-10T08:03:54.826Z,7.67
2019-05-10T08:06:24.774Z,8.63
2019-05-10T08:08:55.301Z,11.37
2019-05-10T08:11:28.440Z,7.50
2019-05-10T08:14:05.859Z,7.50
2019-05-10T08:16:29.388Z,10.83
2019-05-10T08:19:00.929Z,5.10
2019-05-10T08:21:32.244Z,6.73
2019-05-10T08:24:07.193Z,14.80
2019-05-10T08:26:34.204Z,5.53
2019-05-10T08:29:07.778Z,7.00
2019-05-10T08:31:40.672Z,10.37
2019-05-10T08:34:08.418Z,6.10
2019-05-10T08:36:43.450Z,9.10
2019-05-10T08:39:11.469Z,4.33
2019-05-10T08:42:03.328Z,12.10
2019-05-10T08:44:24.040Z,7.50
2019-05-10T08:46:54.395Z,6.83
2019-05-10T08:49:31.356Z,6.67
2019-05-10T08:51:55.407Z,9.10
2019-05-10T08:54:26.520Z,11.70
2019-05-10T08:57:01.265Z,8.70
2019-05-10T08:59:30.819Z,10.83
2019-05-10T09:02:01.965Z,11.00
2019-05-10T09:04:42.238Z,9.40
2019-05-10T09:07:02.811Z,12.57
2019-05-10T09:09:42.262Z,4.47
2019-05-10T09:12:09.048Z,6.30
2019-05-10T09:14:35.985Z,8.87
2019-05-10T09:17:05.686Z,8.83
2019-05-10T09:19:40.630Z,5.90
2019-05-10T09:22:06.904Z,8.43
2019-05-10T09:24:43.221Z,5.50
2019-05-10T09:27:08.119Z,4.73
2019-05-10T09:30:35.472Z,10.17
2019-05-10T09:33:10.591Z,9.33
2019-05-10T09:35:39.038Z,3.90
2019-05-10T09:38:09.306Z,5.20
2019-05-10T09:40:50.208Z,6.90
2019-05-10T09:43:12.488Z,6.27
2019-05-10T09:45:42.552Z,7.13
2019-05-10T09:48:12.412Z,6.20
2019-05-10T09:50:46.898Z,10.47
2019-05-10T09:53:18.202Z,8.17
2019-05-10T09:55:55.154Z,6.00
2019-05-10T09:58:21.672Z,6.10
2019-05-10T10:00:48.474Z,7.03
2019-05-10T10:03:18.726Z,4.90
2019-05-10T10:05:48.514Z,8.23
2019-05-10T10:08:19.222Z,10.07
2019-05-10T10:10:49.121Z,5.63
2019-05-10T10:13:35.679Z,6.57
2019-05-10T10:15:52.505Z,5.57
2019-05-10T10:18:25.320Z,5.23
2019-05-10T10:20:52.991Z,6.13
2019-05-10T10:23:24.722Z,6.10
2019-05-10T10:25:54.030Z,5.93
2019-05-10T10:28:23.867Z,11.77
2019-05-10T10:31:00.014Z,4.53
2019-05-10T10:33:28.819Z,5.67
2019-05-10T10:36:04.944Z,6.07
2019-05-10T10:38:31.086Z,6.80
2019-05-10T10:40:59.696Z,5.23
2019-05-10T10:43:29.458Z,7.50
2019-05-10T10:45:59.182Z,7.53
2019-05-10T10:48:28.934Z,6.17
2019-05-10T10:50:58.944Z,6.63
2019-05-10T10:53:29.051Z,6.00
2019-05-10T10:56:03.640Z,7.20
2019-05-10T10:58:32.054Z,5.43
2019-05-10T11:01:01.789Z,7.67
2019-05-10T11:03:32.543Z,6.47
2019-05-10T11:06:03.356Z,6.33
2019-05-10T11:08:33.390Z,7.37
2019-05-10T11:11:03.577Z,5.83
2019-05-10T11:13:45.464Z,6.47
2019-05-10T11:16:10.776Z,9.53
2019-05-10T11:18:36.277Z,7.20
2019-05-10T11:21:06.046Z,7.63
2019-05-10T11:23:38.979Z,9.10
2019-05-10T11:26:07.214Z,7.10
2019-05-10T11:28:39.127Z,4.93
2019-05-10T11:31:08.400Z,9.70
2019-05-10T11:33:41.131Z,7.83
2019-05-10T11:36:11.404Z,10.40
2019-05-10T11:38:42.049Z,7.27
2019-05-10T11:41:18.616Z,8.47
2019-05-10T11:43:43.568Z,4.93
2019-05-10T11:46:13.345Z,10.37
2019-05-10T11:48:43.141Z,8.77
2019-05-10T11:51:17.377Z,7.33
2019-05-10T11:53:48.972Z,4.80
2019-05-10T11:56:15.671Z,9.07
2019-05-10T11:58:52.603Z,6.97
2019-05-10T12:03:48.451Z,7.40
2019-05-10T12:06:18.128Z,13.33
2019-05-10T12:08:47.882Z,8.87
2019-05-10T12:11:29.353Z,11.53
2019-05-10T12:13:52.837Z,8.93
2019-05-10T12:16:21.487Z,7.37
2019-05-10T12:19:19.538Z,9.53
2019-05-10T12:21:23.303Z,6.97
2019-05-10T12:23:56.328Z,6.50
2019-05-10T12:26:03.777Z,7.67
2019-05-10T12:29:02.133Z,7.90
2019-05-10T12:31:27.497Z,8.43
2019-05-10T12:34:02.504Z,6.47
2019-05-10T12:36:31.306Z,6.93
2019-05-10T12:39:01.810Z,7.63
2019-05-10T12:41:31.996Z,8.27
2019-05-10T12:44:05.729Z,6.03
2019-05-10T12:46:33.761Z,7.53
2019-05-10T12:49:04.928Z,5.13
2019-05-10T12:51:35.011Z,7.30
2019-05-10T12:54:04.830Z,4.90
2019-05-10T12:56:43.004Z,5.10
2019-05-10T12:59:06.106Z,5.47
2019-05-10T13:01:35.809Z,11.33
2019-05-10T13:04:14.049Z,6.67
2019-05-10T13:06:36.935Z,5.23
2019-05-10T13:09:07.456Z,8.97
2019-05-10T13:11:39.072Z,5.83
2019-05-10T13:14:09.725Z,9.43
2019-05-10T13:16:39.695Z,7.10
2019-05-10T13:19:14.296Z,8.30
2019-05-10T13:21:41.818Z,5.17
2019-05-10T13:24:11.524Z,7.57
2019-05-10T13:26:41.251Z,3.43
2019-05-10T13:29:11.066Z,11.03
2019-05-10T13:31:42.951Z,5.50
2019-05-10T13:34:12.262Z,8.43
2019-05-10T13:36:42.028Z,4.50
2019-05-10T13:39:12.204Z,12.77
2019-05-10T13:41:42.038Z,4.33
2019-05-10T13:44:11.809Z,3.57
2019-05-10T13:46:41.473Z,4.30
2019-05-10T13:49:11.311Z,6.50
2019-05-10T13:51:41.976Z,4.63
2019-05-10T13:54:11.726Z,9.43
2019-05-10T13:56:45.276Z,4.00
2019-05-10T13:59:16.418Z,6.10
2019-05-10T14:01:49.356Z,8.07
2019-05-10T14:04:15.886Z,9.20
2019-05-10T14:06:45.791Z,9.80
2019-05-10T14:09:15.634Z,6.57
2019-05-10T14:11:46.904Z,8.10
2019-05-10T14:14:20.361Z,10.27
2019-05-10T14:16:48.103Z,10.17
2019-05-10T14:19:22.863Z,5.37
2019-05-10T14:21:49.620Z,6.50
2019-05-10T14:24:19.411Z,6.60
2019-05-10T14:26:51.420Z,5.13
2019-05-10T14:29:21.032Z,7.53
2019-05-10T14:31:52.501Z,7.33
2019-05-10T14:34:22.383Z,5.83
2019-05-10T14:36:52.341Z,6.87
2019-05-10T14:39:22.227Z,5.63
2019-05-10T14:41:52.531Z,7.80
2019-05-10T14:44:22.806Z,6.90
2019-05-10T14:46:52.720Z,11.20
2019-05-10T14:49:22.627Z,7.23
2019-05-10T14:51:59.084Z,9.00
2019-05-10T14:54:23.922Z,5.17
2019-05-10T14:56:54.200Z,5.07
2019-05-10T14:59:23.999Z,7.10
2019-05-10T15:01:53.774Z,9.17
2019-05-10T15:04:43.820Z,8.23
2019-05-10T15:06:55.098Z,5.83
2019-05-10T15:09:24.888Z,7.23
2019-05-10T15:11:54.627Z,6.57
2019-05-10T15:14:25.437Z,6.77
2019-05-10T15:16:55.234Z,6.40
2019-05-10T15:19:28.622Z,10.67
2019-05-10T15:21:56.663Z,8.57
2019-05-10T15:24:26.586Z,6.60
2019-05-10T15:26:56.363Z,6.77
2019-05-10T15:29:26.433Z,10.30
2019-05-10T15:31:56.523Z,9.60
2019-05-10T15:34:26.471Z,6.57
2019-05-10T15:37:02.765Z,6.03
2019-05-10T15:39:30.530Z,8.00
2019-05-10T15:42:00.998Z,6.03
2019-05-10T15:44:33.527Z,8.73
2019-05-10T15:47:02.750Z,8.87
2019-05-10T15:49:32.775Z,5.70
2019-05-10T15:52:16.780Z,8.00
2019-05-10T15:54:37.949Z,9.87
2019-05-10T15:57:05.675Z,10.20
2019-05-10T15:59:35.550Z,6.30
2019-05-10T16:02:05.803Z,7.50
2019-05-10T16:04:35.663Z,8.00
2019-05-10T16:07:09.445Z,11.37
2019-05-10T16:09:36.967Z,12.77
2019-05-10T16:12:08.752Z,6.00
2019-05-10T16:14:39.269Z,4.60
2019-05-10T16:17:16.110Z,10.70
2019-05-10T16:19:41.448Z,7.83
2019-05-10T16:22:11.165Z,7.53
2019-05-10T16:24:41.011Z,9.70
2019-05-10T16:27:10.806Z,8.13
2019-05-10T16:29:41.441Z,11.03
2019-05-10T16:32:11.537Z,11.87
2019-05-10T16:34:41.362Z,11.80
2019-05-10T16:37:11.134Z,20.80
2019-05-10T16:39:55.658Z,10.03
2019-05-10T16:42:27.943Z,8.97
2019-05-10T16:44:58.694Z,10.17
2019-05-10T16:47:38.799Z,10.00
2019-05-10T16:50:18.255Z,18.00
2019-05-10T16:52:48.153Z,10.57
2019-05-10T16:55:18.053Z,9.83
2019-05-10T16:57:47.759Z,8.53
2019-05-10T17:00:18.062Z,12.20
2019-05-10T17:02:47.814Z,13.77
2019-05-10T17:05:18.126Z,11.67
2019-05-10T17:07:48.696Z,13.13
2019-05-10T17:10:20.618Z,10.77
2019-05-10T17:12:50.529Z,12.90
2019-05-10T17:15:20.500Z,8.40
2019-05-10T17:17:50.659Z,8.87
2019-05-10T17:20:20.671Z,12.43
2019-05-10T17:22:51.155Z,12.10
2019-05-10T17:25:22.742Z,9.80
2019-05-10T17:27:57.539Z,11.00
2019-05-10T17:30:27.772Z,14.03
2019-05-10T17:32:57.647Z,15.27
2019-05-10T17:35:27.406Z,12.33
2019-05-10T17:37:58.111Z,8.50
2019-05-10T17:40:28.432Z,10.07
2019-05-10T17:42:58.326Z,10.63
2019-05-10T17:45:29.010Z,10.50
2019-05-10T17:48:03.455Z,11.73
2019-05-10T17:50:31.253Z,8.43
2019-05-10T17:53:01.148Z,9.37
2019-05-10T17:55:31.102Z,10.93
2019-05-10T17:58:06.982Z,11.47
2019-05-10T18:00:36.813Z,10.53
2019-05-10T18:03:06.552Z,10.77
2019-05-10T18:05:36.402Z,9.70
2019-05-10T18:08:06.523Z,8.97
2019-05-10T18:10:36.450Z,9.40
2019-05-10T18:16:48.135Z,9.63
2019-05-10T18:19:19.188Z,13.43
2019-05-10T18:21:47.349Z,10.43
2019-05-10T18:24:17.103Z,8.03
2019-05-10T18:26:46.980Z,10.47
2019-05-10T18:29:16.839Z,14.13
2019-05-10T18:31:54.760Z,14.23
2019-05-10T18:34:18.594Z,11.50
2019-05-10T18:36:51.560Z,8.47
2019-05-10T18:39:20.177Z,12.13
2019-05-10T18:41:50.453Z,11.23
2019-05-10T18:44:20.846Z,12.07
2019-05-10T18:46:52.084Z,9.67
2019-05-10T18:49:22.730Z,11.90
2019-05-10T18:51:58.174Z,12.57
2019-05-10T18:54:25.125Z,12.93
2019-05-10T18:56:55.396Z,13.50
2019-05-10T18:59:25.961Z,11.13
2019-05-10T19:01:56.319Z,8.30
2019-05-10T19:04:26.607Z,9.23
2019-05-10T19:07:09.394Z,9.53
2019-05-10T19:09:29.791Z,9.00
2019-05-10T19:12:00.501Z,8.37
2019-05-10T19:14:31.324Z,15.03
2019-05-10T19:17:03.910Z,8.37
2019-05-10T19:19:37.446Z,12.73
2019-05-10T19:22:08.803Z,14.67
2019-05-10T19:24:39.323Z,18.87
2019-05-10T19:27:11.299Z,11.10
2019-05-10T19:29:45.928Z,15.00
2019-05-10T19:32:18.347Z,12.33
2019-05-10T19:34:48.264Z,16.17
2019-05-10T19:37:29.758Z,14.33
2019-05-10T19:39:51.737Z,14.43
2019-05-10T19:42:24.046Z,16.13
2019-05-10T19:44:55.909Z,16.67
2019-05-10T19:47:26.741Z,11.20
2019-05-10T19:49:57.251Z,19.40
2019-05-10T19:52:39.612Z,17.93
2019-05-10T19:55:19.595Z,15.17
2019-05-10T19:57:54.942Z,21.17
2019-05-10T20:00:28.502Z,27.30
2019-05-10T20:02:59.016Z,14.90
2019-05-10T20:05:29.971Z,22.53
2019-05-10T20:08:02.936Z,20.37
2019-05-10T20:10:33.816Z,14.27
2019-05-10T20:13:06.921Z,17.27
2019-05-10T20:15:37.464Z,16.80
2019-05-10T20:18:08.781Z,23.30
2019-05-10T20:20:39.442Z,22.63
2019-05-10T20:23:10.313Z,17.30
2019-05-10T20:25:42.040Z,20.20
2019-05-10T20:28:14.219Z,20.63
2019-05-10T20:30:45.273Z,16.73
2019-05-10T20:33:15.915Z,16.33
2019-05-10T20:35:46.575Z,17.23
2019-05-10T20:38:16.840Z,14.50
2019-05-10T20:40:47.609Z,14.10
2019-05-10T20:43:18.148Z,20.57
2019-05-10T20:45:48.784Z,15.23
2019-05-10T20:48:19.676Z,24.23
2019-05-10T20:50:50.159Z,21.63
2019-05-10T20:53:32.927Z,21.40
2019-05-10T20:56:01.160Z,18.27
2019-05-10T20:58:31.332Z,19.27
2019-05-10T21:01:01.460Z,15.67
2019-05-10T21:03:31.577Z,16.27
2019-05-10T21:06:01.712Z,17.97
2019-05-10T21:08:31.578Z,17.30
2019-05-10T21:11:01.399Z,16.47
2019-05-10T21:13:31.232Z,16.70
2019-05-10T21:16:01.080Z,18.50
2019-05-10T21:18:30.924Z,18.07
2019-05-10T21:24:07.705Z,21.37
2019-05-10T21:26:37.862Z,22.87
2019-05-10T21:29:08.010Z,21.77
2019-05-10T21:31:37.893Z,17.60
2019-05-10T21:34:10.129Z,21.10
2019-05-10T21:36:39.248Z,20.77
2019-05-10T21:39:09.253Z,18.77
2019-05-10T21:41:39.246Z,14.37
2019-05-10T21:44:09.219Z,14.13
2019-05-10T21:46:39.030Z,14.20
2019-05-10T21:49:09.088Z,19.43
2019-05-10T21:51:38.962Z,20.97
2019-05-10T21:54:08.795Z,23.67
2019-05-10T21:56:38.653Z,20.70
2019-05-10T21:59:08.408Z,18.43
2019-05-10T22:01:38.634Z,16.23
2019-05-10T22:04:08.399Z,14.60
2019-05-10T22:06:38.203Z,12.63
2019-05-10T22:09:10.309Z,18.93
2019-05-10T22:11:40.123Z,18.67
2019-05-10T22:14:09.920Z,13.00
2019-05-10T22:16:40.126Z,15.10
2019-05-10T22:19:10.025Z,18.13
2019-05-10T22:21:39.793Z,17.10
2019-05-10T22:24:09.696Z,22.37
2019-05-10T22:26:42.035Z,24.77
2019-05-10T22:29:16.648Z,16.43
2019-05-10T22:31:46.203Z,14.63
2019-05-10T22:34:16.317Z,18.20
2019-05-10T22:36:46.052Z,21.13
2019-05-10T22:39:15.811Z,15.67
2019-05-10T22:41:45.515Z,17.37
2019-05-10T22:44:15.338Z,11.77
2019-05-10T22:46:45.047Z,15.80
2019-05-10T22:49:14.806Z,10.87
2019-05-10T22:51:44.532Z,14.30
2019-05-10T22:54:14.348Z,13.07
2019-05-10T22:56:44.119Z,13.23
2019-05-10T22:59:13.915Z,16.03
2019-05-10T23:01:43.742Z,16.40
2019-05-10T23:04:13.467Z,15.17
2019-05-10T23:06:43.305Z,14.43
2019-05-10T23:09:24.166Z,16.47
2019-05-10T23:11:44.483Z,20.47
2019-05-10T23:14:33.399Z,15.80
2019-05-10T23:17:03.186Z,16.33
2019-05-10T23:19:33.016Z,16.73
2019-05-10T23:22:02.907Z,18.30
2019-05-10T23:24:39.877Z,22.10
2019-05-10T23:27:09.630Z,24.27
2019-05-10T23:29:39.532Z,21.97
2019-05-10T23:32:09.429Z,26.83
2019-05-10T23:34:39.222Z,15.10
2019-05-10T23:37:08.978Z,11.53
2019-05-10T23:39:41.127Z,16.73
2019-05-10T23:42:10.243Z,16.47
2019-05-10T23:44:40.011Z,14.80
2019-05-10T23:47:09.832Z,11.90
2019-05-10T23:49:39.653Z,19.60
2019-05-10T23:52:09.375Z,17.33
2019-05-10T23:54:39.192Z,12.47
2019-05-10T23:57:09.463Z,16.10
2019-05-10T23:59:39.205Z,11.93
